Veracruz Airport, Mexico

5:47 PM CDT on June 03, 2015 (GMT -0500)
Gen Heriberto Jara International | | Change Station
CLOSE
Current Station
Airport
Location: Veracruz Airport,
Elevation: 95 ft
Nearby Weather Stations

Elev 95 ft 19.15 °N, 96.19 °W | Updated 59 minutes ago

Mostly Cloudy
Mostly Cloudy
84 °F
Feels Like 87 °F
N
8
Wind Variable Wind from ESE

Today
High -- | Low -- °F
--% Chance of Precip.
Yesterday
High -- | Low -- °F
Precip. -- in
6:46 AM 7:59 PM
Full, 98% visible
Pressure 29.84 in
Visibility 7.0 miles
Clouds Few 1200 ft
Scattered Clouds 9000 ft
Mostly Cloudy 25000 ft
Heat Index 87 °F
Dew Point 68 °F
Humidity 58%
Rainfall 0.00 in
Snow Depth Not available.
UV 3 out of 12
Pollen Not available.
Air Quality Not available.
Flu Activity Not available.
METAR MMVR 032148Z 11007KT 7SM FEW012 SCT090 BKN250 29/20 A2984 RMK 8/138 HZY FU COLUMN TO E DSNT TCU 3 QUAD

More Conditions Fewer Conditions

Pressure 29.84 in
Visibility 7.0 miles
Clouds Few 1200 ft
Scattered Clouds 9000 ft
Mostly Cloudy 25000 ft
Heat Index 87 °F
Dew Point 68 °F
Humidity 58%
Rainfall 0.00 in
Snow Depth Not available.
UV 3 out of 12
Pollen Not available.
Air Quality Not available.
Flu Activity Not available.
METAR MMVR 032148Z 11007KT 7SM FEW012 SCT090 BKN250 29/20 A2984 RMK 8/138 HZY FU COLUMN TO E DSNT TCU 3 QUAD

More Conditions Fewer Conditions

10-Day Weather Forecast

×

Almanac

Astronomy

Jun. 03, 2015 Rise Set
Actual Time
Civil Twilight
Nautical Twilight
Astronomical Twilight
Moon
Length of Visible Light
Length of Day
Tomorrow will be .
, % of the Moon is Illuminated

Today's Extremes

Country Highs Country Lows

Community

WunderPhotos

Upload Photos

1,826,295 photos uploaded!

WunderBlogs® & News

Nearby

Air Quality

  Air Quality AQ Index Pollutant
Not available.

Snow Depth

Station Depth Elevation

Earthquake Activity

City Distance Mag. Time & Date
Minimum magnitude displayed is 2.5.

Coastal Water Temperatures

Place Temperature

Stations

Nearby Weather Stations

Station Location Temp. Windchill Dew Point Humidity Wind Precip. Elev Updated Type